Portada
METAR-TAF:

METAR-TAF

Aeropuertos :

Aeropuerto Internacional de Vladivostok

Vladivostok, Rusia

latitud: 43-07N, longitud: 131-56E, altitud: 184 m

Observación

El informe se hizo hace 18 minutos, a las 04:30 UTC
Viento 8 kt del norte
Temperatura 0°C
Humedad 26%
Presión 1031 hPa
Visibilidad 10 km o más

METAR: UHWW 200430Z 36004MPS 9999 NSC M00/M17 Q1031 R25L/0///70 NOSIG RMK QFE772

Hora: 14:48 (04:48 UTC)

Pronóstico

El informe se hizo hace 2 horas y 48 minutos, a las 02:00 UTC
Pronóstico válido del 20 a las 03 UTC al 21 a las 03 UTC
Viento 6 kt del norte-noroeste
Visibilidad 10 km o más
Temporalmente
del 20 a las 03 UTC al 20 a las 08 UTC
Viento 16 kt del norte-noroeste
A partir de las 20 a las 1000 UTC
Viento 6 kt del suroeste
Visibilidad: 4000 m
Cielo nuboso a una altura de 1100 ft
calima

TAF: UHWW 200200Z 2003/2103 33003MPS 9999 NSC TEMPO 2003/2008 34008MPS FM201000 22003MPS 4000 HZ BKN011

Observaciones y pronósticos meteorológicos de más de 4000 aeropuertos (mensajes METAR y TAF).

Los puntos amarillos y rojos representan las estaciones disponibles.

Ponga el ratón en el punto deseado para ver el nombre de la estación.

Haga clic para ver las observaciones y los pronósticos meteorológicos.

Para cambiar el mapa : haga clic en los botones verdes con una cruz de color negro para hacer un zoom, en el botón verde con un guión para alejar o en las flechas verdes para mapas adyacentes.


METAR-TAF: